sensor_id;sensor_type;location;lat;lon;timestamp;P1;durP1;ratioP1;P2;durP2;ratioP2
40288;SDS011;28991;52.028;5.526;2023-12-20T00:01:46;0.70;;;0.40;;
40288;SDS011;28991;52.028;5.526;2023-12-20T00:04:12;0.60;;;0.50;;
40288;SDS011;28991;52.028;5.526;2023-12-20T00:06:37;0.40;;;0.38;;
40288;SDS011;28991;52.028;5.526;2023-12-20T00:09:03;0.40;;;0.40;;
40288;SDS011;28991;52.028;5.526;2023-12-20T00:11:28;0.85;;;0.50;;
40288;SDS011;28991;52.028;5.526;2023-12-20T00:13:54;0.40;;;0.40;;
40288;SDS011;28991;52.028;5.526;2023-12-20T00:16:19;0.60;;;0.38;;
40288;SDS011;28991;52.028;5.526;2023-12-20T00:18:45;0.40;;;0.40;;
40288;SDS011;28991;52.028;5.526;2023-12-20T00:21:10;0.55;;;0.40;;
40288;SDS011;28991;52.028;5.526;2023-12-20T00:23:36;0.40;;;0.40;;
40288;SDS011;28991;52.028;5.526;2023-12-20T00:26:02;0.60;;;0.40;;
40288;SDS011;28991;52.028;5.526;2023-12-20T00:28:27;0.40;;;0.40;;
40288;SDS011;28991;52.028;5.526;2023-12-20T00:30:53;0.77;;;0.60;;
40288;SDS011;28991;52.028;5.526;2023-12-20T00:33:18;0.43;;;0.43;;
40288;SDS011;28991;52.028;5.526;2023-12-20T00:35:44;0.45;;;0.45;;
40288;SDS011;28991;52.028;5.526;2023-12-20T00:38:10;0.63;;;0.47;;
40288;SDS011;28991;52.028;5.526;2023-12-20T00:40:36;2.05;;;0.50;;
40288;SDS011;28991;52.028;5.526;2023-12-20T00:43:02;0.57;;;0.57;;
40288;SDS011;28991;52.028;5.526;2023-12-20T00:45:27;1.33;;;0.40;;
40288;SDS011;28991;52.028;5.526;2023-12-20T00:47:53;0.30;;;0.30;;
40288;SDS011;28991;52.028;5.526;2023-12-20T00:50:18;0.68;;;0.60;;
40288;SDS011;28991;52.028;5.526;2023-12-20T00:52:46;1.25;;;0.50;;
40288;SDS011;28991;52.028;5.526;2023-12-20T00:55:11;0.40;;;0.40;;
40288;SDS011;28991;52.028;5.526;2023-12-20T00:57:37;0.30;;;0.30;;
40288;SDS011;28991;52.028;5.526;2023-12-20T01:00:02;0.50;;;0.50;;
40288;SDS011;28991;52.028;5.526;2023-12-20T01:02:28;0.30;;;0.30;;
40288;SDS011;28991;52.028;5.526;2023-12-20T01:04:54;0.30;;;0.30;;
40288;SDS011;28991;52.028;5.526;2023-12-20T01:07:19;0.50;;;0.50;;
40288;SDS011;28991;52.028;5.526;2023-12-20T01:09:45;0.65;;;0.40;;
40288;SDS011;28991;52.028;5.526;2023-12-20T01:12:10;0.60;;;0.50;;
40288;SDS011;28991;52.028;5.526;2023-12-20T01:14:36;1.00;;;0.32;;
40288;SDS011;28991;52.028;5.526;2023-12-20T01:17:02;0.40;;;0.40;;
40288;SDS011;28991;52.028;5.526;2023-12-20T01:19:27;0.68;;;0.40;;
40288;SDS011;28991;52.028;5.526;2023-12-20T01:21:54;0.40;;;0.30;;
40288;SDS011;28991;52.028;5.526;2023-12-20T01:24:20;0.40;;;0.40;;
40288;SDS011;28991;52.028;5.526;2023-12-20T01:26:45;0.30;;;0.30;;
40288;SDS011;28991;52.028;5.526;2023-12-20T01:29:11;0.40;;;0.40;;
40288;SDS011;28991;52.028;5.526;2023-12-20T01:31:38;0.32;;;0.32;;
40288;SDS011;28991;52.028;5.526;2023-12-20T01:34:03;0.40;;;0.40;;
40288;SDS011;28991;52.028;5.526;2023-12-20T01:36:29;0.52;;;0.40;;
40288;SDS011;28991;52.028;5.526;2023-12-20T01:38:54;0.43;;;0.43;;
40288;SDS011;28991;52.028;5.526;2023-12-20T01:41:20;0.43;;;0.43;;
40288;SDS011;28991;52.028;5.526;2023-12-20T01:43:45;0.40;;;0.30;;
40288;SDS011;28991;52.028;5.526;2023-12-20T01:46:11;0.40;;;0.40;;
40288;SDS011;28991;52.028;5.526;2023-12-20T01:48:37;0.40;;;0.40;;
40288;SDS011;28991;52.028;5.526;2023-12-20T01:51:03;0.70;;;0.50;;
40288;SDS011;28991;52.028;5.526;2023-12-20T01:53:29;0.38;;;0.30;;
40288;SDS011;28991;52.028;5.526;2023-12-20T01:55:57;0.55;;;0.40;;
40288;SDS011;28991;52.028;5.526;2023-12-20T01:58:24;0.40;;;0.38;;
40288;SDS011;28991;52.028;5.526;2023-12-20T02:00:50;0.43;;;0.40;;
40288;SDS011;28991;52.028;5.526;2023-12-20T02:03:16;0.80;;;0.40;;
40288;SDS011;28991;52.028;5.526;2023-12-20T02:05:43;0.55;;;0.50;;
40288;SDS011;28991;52.028;5.526;2023-12-20T02:08:10;0.52;;;0.40;;
40288;SDS011;28991;52.028;5.526;2023-12-20T02:10:36;0.50;;;0.50;;
40288;SDS011;28991;52.028;5.526;2023-12-20T02:13:01;0.95;;;0.40;;
40288;SDS011;28991;52.028;5.526;2023-12-20T02:15:29;0.47;;;0.47;;
40288;SDS011;28991;52.028;5.526;2023-12-20T02:17:54;0.68;;;0.40;;
40288;SDS011;28991;52.028;5.526;2023-12-20T02:20:20;1.27;;;0.77;;
40288;SDS011;28991;52.028;5.526;2023-12-20T02:22:46;2.35;;;1.50;;
40288;SDS011;28991;52.028;5.526;2023-12-20T02:25:11;0.38;;;0.38;;
40288;SDS011;28991;52.028;5.526;2023-12-20T02:27:37;0.47;;;0.40;;
40288;SDS011;28991;52.028;5.526;2023-12-20T02:30:04;0.55;;;0.50;;
40288;SDS011;28991;52.028;5.526;2023-12-20T02:32:30;0.35;;;0.35;;
40288;SDS011;28991;52.028;5.526;2023-12-20T02:34:56;1.23;;;0.57;;
40288;SDS011;28991;52.028;5.526;2023-12-20T02:37:22;0.80;;;0.55;;
40288;SDS011;28991;52.028;5.526;2023-12-20T02:39:48;1.00;;;0.60;;
40288;SDS011;28991;52.028;5.526;2023-12-20T02:42:13;0.40;;;0.40;;
40288;SDS011;28991;52.028;5.526;2023-12-20T02:44:39;0.55;;;0.40;;
40288;SDS011;28991;52.028;5.526;2023-12-20T02:47:04;0.50;;;0.35;;
40288;SDS011;28991;52.028;5.526;2023-12-20T02:49:30;0.30;;;0.30;;
40288;SDS011;28991;52.028;5.526;2023-12-20T02:51:55;0.30;;;0.30;;
40288;SDS011;28991;52.028;5.526;2023-12-20T02:54:21;1.25;;;0.50;;
40288;SDS011;28991;52.028;5.526;2023-12-20T02:56:47;0.50;;;0.50;;
40288;SDS011;28991;52.028;5.526;2023-12-20T02:59:12;0.80;;;0.55;;
40288;SDS011;28991;52.028;5.526;2023-12-20T03:01:42;0.40;;;0.40;;
40288;SDS011;28991;52.028;5.526;2023-12-20T03:04:08;0.90;;;0.50;;
40288;SDS011;28991;52.028;5.526;2023-12-20T03:06:34;0.60;;;0.60;;
40288;SDS011;28991;52.028;5.526;2023-12-20T03:09:00;0.73;;;0.38;;
40288;SDS011;28991;52.028;5.526;2023-12-20T03:11:28;0.93;;;0.57;;
40288;SDS011;28991;52.028;5.526;2023-12-20T03:13:57;0.63;;;0.40;;
40288;SDS011;28991;52.028;5.526;2023-12-20T03:16:23;0.70;;;0.50;;
40288;SDS011;28991;52.028;5.526;2023-12-20T03:18:48;0.40;;;0.40;;
40288;SDS011;28991;52.028;5.526;2023-12-20T03:21:14;0.65;;;0.50;;
40288;SDS011;28991;52.028;5.526;2023-12-20T03:23:40;1.50;;;0.50;;
40288;SDS011;28991;52.028;5.526;2023-12-20T03:26:06;1.13;;;0.57;;
40288;SDS011;28991;52.028;5.526;2023-12-20T03:28:33;0.30;;;0.30;;
40288;SDS011;28991;52.028;5.526;2023-12-20T03:30:59;1.55;;;0.70;;
40288;SDS011;28991;52.028;5.526;2023-12-20T03:33:24;0.80;;;0.50;;
40288;SDS011;28991;52.028;5.526;2023-12-20T03:35:50;1.25;;;0.50;;
40288;SDS011;28991;52.028;5.526;2023-12-20T03:38:15;0.70;;;0.32;;
40288;SDS011;28991;52.028;5.526;2023-12-20T03:40:41;0.32;;;0.32;;
40288;SDS011;28991;52.028;5.526;2023-12-20T03:43:06;0.70;;;0.45;;
40288;SDS011;28991;52.028;5.526;2023-12-20T03:45:32;0.43;;;0.40;;
40288;SDS011;28991;52.028;5.526;2023-12-20T03:47:58;0.45;;;0.40;;
40288;SDS011;28991;52.028;5.526;2023-12-20T03:50:24;0.50;;;0.47;;
40288;SDS011;28991;52.028;5.526;2023-12-20T03:52:49;0.73;;;0.55;;
40288;SDS011;28991;52.028;5.526;2023-12-20T03:55:15;1.35;;;0.50;;
40288;SDS011;28991;52.028;5.526;2023-12-20T03:57:40;0.98;;;0.65;;
40288;SDS011;28991;52.028;5.526;2023-12-20T04:00:09;0.90;;;0.55;;
40288;SDS011;28991;52.028;5.526;2023-12-20T04:02:36;0.40;;;0.40;;
40288;SDS011;28991;52.028;5.526;2023-12-20T04:05:06;0.57;;;0.40;;
40288;SDS011;28991;52.028;5.526;2023-12-20T04:07:32;1.25;;;0.70;;
40288;SDS011;28991;52.028;5.526;2023-12-20T04:09:57;0.63;;;0.50;;
40288;SDS011;28991;52.028;5.526;2023-12-20T04:12:23;0.40;;;0.40;;
40288;SDS011;28991;52.028;5.526;2023-12-20T04:14:49;1.55;;;0.40;;
40288;SDS011;28991;52.028;5.526;2023-12-20T04:17:17;0.40;;;0.30;;
40288;SDS011;28991;52.028;5.526;2023-12-20T04:19:43;0.60;;;0.40;;
40288;SDS011;28991;52.028;5.526;2023-12-20T04:22:08;0.63;;;0.57;;
40288;SDS011;28991;52.028;5.526;2023-12-20T04:24:34;0.52;;;0.35;;
40288;SDS011;28991;52.028;5.526;2023-12-20T04:27:00;0.80;;;0.47;;
40288;SDS011;28991;52.028;5.526;2023-12-20T04:29:26;0.98;;;0.40;;
40288;SDS011;28991;52.028;5.526;2023-12-20T04:31:51;1.13;;;0.50;;
40288;SDS011;28991;52.028;5.526;2023-12-20T04:34:17;0.55;;;0.50;;
40288;SDS011;28991;52.028;5.526;2023-12-20T04:36:43;0.38;;;0.38;;
40288;SDS011;28991;52.028;5.526;2023-12-20T04:39:09;0.43;;;0.30;;
40288;SDS011;28991;52.028;5.526;2023-12-20T04:41:35;0.95;;;0.47;;
40288;SDS011;28991;52.028;5.526;2023-12-20T04:44:00;0.73;;;0.50;;
40288;SDS011;28991;52.028;5.526;2023-12-20T04:46:26;0.30;;;0.30;;
40288;SDS011;28991;52.028;5.526;2023-12-20T04:48:51;0.95;;;0.52;;
40288;SDS011;28991;52.028;5.526;2023-12-20T04:51:17;0.43;;;0.40;;
40288;SDS011;28991;52.028;5.526;2023-12-20T04:53:43;0.50;;;0.35;;
40288;SDS011;28991;52.028;5.526;2023-12-20T04:56:08;0.68;;;0.43;;
40288;SDS011;28991;52.028;5.526;2023-12-20T04:58:34;1.52;;;0.60;;
40288;SDS011;28991;52.028;5.526;2023-12-20T05:00:59;0.40;;;0.40;;
40288;SDS011;28991;52.028;5.526;2023-12-20T05:03:25;1.38;;;0.50;;
40288;SDS011;28991;52.028;5.526;2023-12-20T05:05:51;0.73;;;0.50;;
40288;SDS011;28991;52.028;5.526;2023-12-20T05:08:16;0.50;;;0.50;;
40288;SDS011;28991;52.028;5.526;2023-12-20T05:10:42;0.98;;;0.50;;
40288;SDS011;28991;52.028;5.526;2023-12-20T05:13:07;0.52;;;0.43;;
40288;SDS011;28991;52.028;5.526;2023-12-20T05:15:33;0.70;;;0.50;;
40288;SDS011;28991;52.028;5.526;2023-12-20T05:17:59;0.88;;;0.50;;
40288;SDS011;28991;52.028;5.526;2023-12-20T05:20:24;0.75;;;0.50;;
40288;SDS011;28991;52.028;5.526;2023-12-20T05:22:50;1.58;;;0.77;;
40288;SDS011;28991;52.028;5.526;2023-12-20T05:25:15;0.98;;;0.60;;
40288;SDS011;28991;52.028;5.526;2023-12-20T05:27:41;0.30;;;0.30;;
40288;SDS011;28991;52.028;5.526;2023-12-20T05:30:07;0.93;;;0.60;;
40288;SDS011;28991;52.028;5.526;2023-12-20T05:32:33;1.00;;;0.60;;
40288;SDS011;28991;52.028;5.526;2023-12-20T05:34:58;0.43;;;0.40;;
40288;SDS011;28991;52.028;5.526;2023-12-20T05:37:24;1.08;;;0.40;;
40288;SDS011;28991;52.028;5.526;2023-12-20T05:39:49;1.40;;;0.40;;
40288;SDS011;28991;52.028;5.526;2023-12-20T05:42:15;0.50;;;0.50;;
40288;SDS011;28991;52.028;5.526;2023-12-20T05:44:40;0.57;;;0.40;;
40288;SDS011;28991;52.028;5.526;2023-12-20T05:47:06;1.70;;;0.85;;
40288;SDS011;28991;52.028;5.526;2023-12-20T05:49:31;0.73;;;0.47;;
40288;SDS011;28991;52.028;5.526;2023-12-20T05:51:57;1.58;;;0.80;;
40288;SDS011;28991;52.028;5.526;2023-12-20T05:54:22;0.90;;;0.65;;
40288;SDS011;28991;52.028;5.526;2023-12-20T05:56:48;1.05;;;0.52;;
40288;SDS011;28991;52.028;5.526;2023-12-20T05:59:14;1.00;;;0.50;;
40288;SDS011;28991;52.028;5.526;2023-12-20T06:01:39;0.95;;;0.50;;
40288;SDS011;28991;52.028;5.526;2023-12-20T06:04:05;0.75;;;0.50;;
40288;SDS011;28991;52.028;5.526;2023-12-20T06:06:30;0.73;;;0.50;;
40288;SDS011;28991;52.028;5.526;2023-12-20T06:08:56;0.60;;;0.55;;
40288;SDS011;28991;52.028;5.526;2023-12-20T06:11:22;3.08;;;0.68;;
40288;SDS011;28991;52.028;5.526;2023-12-20T06:13:47;4.65;;;1.05;;
40288;SDS011;28991;52.028;5.526;2023-12-20T06:16:14;4.72;;;1.08;;
40288;SDS011;28991;52.028;5.526;2023-12-20T06:18:40;1.92;;;0.95;;
40288;SDS011;28991;52.028;5.526;2023-12-20T06:21:05;3.22;;;1.10;;
40288;SDS011;28991;52.028;5.526;2023-12-20T06:23:32;5.45;;;1.67;;
40288;SDS011;28991;52.028;5.526;2023-12-20T06:25:58;7.53;;;1.20;;
40288;SDS011;28991;52.028;5.526;2023-12-20T06:28:24;2.47;;;1.17;;
40288;SDS011;28991;52.028;5.526;2023-12-20T06:30:49;3.67;;;1.33;;
40288;SDS011;28991;52.028;5.526;2023-12-20T06:33:17;2.58;;;1.15;;
40288;SDS011;28991;52.028;5.526;2023-12-20T06:35:43;2.83;;;0.90;;
40288;SDS011;28991;52.028;5.526;2023-12-20T06:38:09;2.58;;;1.13;;
40288;SDS011;28991;52.028;5.526;2023-12-20T06:40:34;1.63;;;0.90;;
40288;SDS011;28991;52.028;5.526;2023-12-20T06:43:00;2.92;;;1.15;;
40288;SDS011;28991;52.028;5.526;2023-12-20T06:45:25;4.25;;;1.23;;
40288;SDS011;28991;52.028;5.526;2023-12-20T06:47:51;1.80;;;0.73;;
40288;SDS011;28991;52.028;5.526;2023-12-20T06:50:17;3.33;;;0.75;;
40288;SDS011;28991;52.028;5.526;2023-12-20T06:52:42;2.50;;;1.17;;
40288;SDS011;28991;52.028;5.526;2023-12-20T06:55:08;1.90;;;0.70;;
40288;SDS011;28991;52.028;5.526;2023-12-20T06:57:33;1.63;;;0.73;;
40288;SDS011;28991;52.028;5.526;2023-12-20T07:00:01;1.83;;;0.77;;
40288;SDS011;28991;52.028;5.526;2023-12-20T07:02:27;2.20;;;1.08;;
40288;SDS011;28991;52.028;5.526;2023-12-20T07:04:55;1.42;;;0.85;;
40288;SDS011;28991;52.028;5.526;2023-12-20T07:07:21;2.03;;;0.80;;
40288;SDS011;28991;52.028;5.526;2023-12-20T07:09:48;2.45;;;0.90;;
40288;SDS011;28991;52.028;5.526;2023-12-20T07:12:13;1.90;;;0.90;;
40288;SDS011;28991;52.028;5.526;2023-12-20T07:14:39;4.45;;;0.90;;
40288;SDS011;28991;52.028;5.526;2023-12-20T07:17:05;2.35;;;0.70;;
40288;SDS011;28991;52.028;5.526;2023-12-20T07:19:36;1.48;;;0.70;;
40288;SDS011;28991;52.028;5.526;2023-12-20T07:22:02;1.20;;;0.60;;
40288;SDS011;28991;52.028;5.526;2023-12-20T07:24:28;3.28;;;1.00;;
40288;SDS011;28991;52.028;5.526;2023-12-20T07:26:54;1.70;;;0.70;;
40288;SDS011;28991;52.028;5.526;2023-12-20T07:29:19;2.45;;;1.48;;
40288;SDS011;28991;52.028;5.526;2023-12-20T07:31:45;2.65;;;1.00;;
40288;SDS011;28991;52.028;5.526;2023-12-20T07:34:11;2.83;;;0.70;;
40288;SDS011;28991;52.028;5.526;2023-12-20T07:36:36;1.60;;;0.70;;
40288;SDS011;28991;52.028;5.526;2023-12-20T07:39:02;1.05;;;0.90;;
40288;SDS011;28991;52.028;5.526;2023-12-20T07:41:28;1.42;;;0.70;;
40288;SDS011;28991;52.028;5.526;2023-12-20T07:43:53;1.38;;;0.77;;
40288;SDS011;28991;52.028;5.526;2023-12-20T07:46:20;1.80;;;0.93;;
40288;SDS011;28991;52.028;5.526;2023-12-20T07:48:48;1.17;;;0.95;;
40288;SDS011;28991;52.028;5.526;2023-12-20T07:51:14;2.65;;;1.02;;
40288;SDS011;28991;52.028;5.526;2023-12-20T07:53:39;2.70;;;1.00;;
40288;SDS011;28991;52.028;5.526;2023-12-20T07:56:26;2.78;;;0.90;;
40288;SDS011;28991;52.028;5.526;2023-12-20T07:58:51;3.67;;;1.25;;
40288;SDS011;28991;52.028;5.526;2023-12-20T08:01:16;2.20;;;1.08;;
40288;SDS011;28991;52.028;5.526;2023-12-20T08:03:43;1.52;;;1.00;;
40288;SDS011;28991;52.028;5.526;2023-12-20T08:06:09;1.33;;;0.70;;
40288;SDS011;28991;52.028;5.526;2023-12-20T08:08:34;2.17;;;1.02;;
40288;SDS011;28991;52.028;5.526;2023-12-20T08:11:00;3.15;;;1.02;;
40288;SDS011;28991;52.028;5.526;2023-12-20T08:13:26;1.13;;;0.68;;
40288;SDS011;28991;52.028;5.526;2023-12-20T08:15:52;3.97;;;0.90;;
40288;SDS011;28991;52.028;5.526;2023-12-20T08:18:18;1.48;;;0.82;;
40288;SDS011;28991;52.028;5.526;2023-12-20T08:20:44;4.03;;;1.35;;
40288;SDS011;28991;52.028;5.526;2023-12-20T08:23:09;2.17;;;0.95;;
40288;SDS011;28991;52.028;5.526;2023-12-20T08:25:35;3.10;;;1.10;;
40288;SDS011;28991;52.028;5.526;2023-12-20T08:28:01;2.47;;;0.80;;
40288;SDS011;28991;52.028;5.526;2023-12-20T08:30:27;1.50;;;0.80;;
40288;SDS011;28991;52.028;5.526;2023-12-20T08:32:54;2.10;;;1.00;;
40288;SDS011;28991;52.028;5.526;2023-12-20T08:35:20;2.40;;;1.08;;
40288;SDS011;28991;52.028;5.526;2023-12-20T08:37:45;1.55;;;0.85;;
40288;SDS011;28991;52.028;5.526;2023-12-20T08:40:11;1.88;;;0.90;;
40288;SDS011;28991;52.028;5.526;2023-12-20T08:42:37;3.53;;;0.95;;
40288;SDS011;28991;52.028;5.526;2023-12-20T08:45:02;3.65;;;1.05;;
40288;SDS011;28991;52.028;5.526;2023-12-20T08:47:29;6.43;;;1.25;;
40288;SDS011;28991;52.028;5.526;2023-12-20T08:49:55;1.48;;;0.70;;
40288;SDS011;28991;52.028;5.526;2023-12-20T08:52:24;1.77;;;0.90;;
40288;SDS011;28991;52.028;5.526;2023-12-20T08:54:52;4.75;;;0.90;;
40288;SDS011;28991;52.028;5.526;2023-12-20T08:57:19;3.05;;;0.90;;
40288;SDS011;28991;52.028;5.526;2023-12-20T08:59:46;2.75;;;1.10;;
40288;SDS011;28991;52.028;5.526;2023-12-20T09:02:12;3.08;;;1.17;;
40288;SDS011;28991;52.028;5.526;2023-12-20T09:04:38;1.95;;;1.13;;
40288;SDS011;28991;52.028;5.526;2023-12-20T09:07:04;1.83;;;0.77;;
40288;SDS011;28991;52.028;5.526;2023-12-20T09:09:29;1.27;;;0.70;;
40288;SDS011;28991;52.028;5.526;2023-12-20T09:11:57;2.03;;;0.73;;
40288;SDS011;28991;52.028;5.526;2023-12-20T09:14:22;2.70;;;1.10;;
40288;SDS011;28991;52.028;5.526;2023-12-20T09:16:48;2.75;;;1.00;;
40288;SDS011;28991;52.028;5.526;2023-12-20T09:19:16;2.38;;;1.00;;
40288;SDS011;28991;52.028;5.526;2023-12-20T09:21:42;2.13;;;0.85;;
40288;SDS011;28991;52.028;5.526;2023-12-20T09:24:08;4.97;;;0.82;;
40288;SDS011;28991;52.028;5.526;2023-12-20T09:26:34;3.03;;;1.23;;
40288;SDS011;28991;52.028;5.526;2023-12-20T09:29:00;1.70;;;0.82;;
40288;SDS011;28991;52.028;5.526;2023-12-20T09:31:25;3.47;;;1.20;;
40288;SDS011;28991;52.028;5.526;2023-12-20T09:33:51;4.75;;;1.30;;
40288;SDS011;28991;52.028;5.526;2023-12-20T09:36:18;2.42;;;0.90;;
40288;SDS011;28991;52.028;5.526;2023-12-20T09:38:43;1.92;;;0.95;;
40288;SDS011;28991;52.028;5.526;2023-12-20T09:41:09;2.25;;;0.90;;
40288;SDS011;28991;52.028;5.526;2023-12-20T09:43:37;6.28;;;1.77;;
40288;SDS011;28991;52.028;5.526;2023-12-20T09:46:05;1.58;;;0.95;;
40288;SDS011;28991;52.028;5.526;2023-12-20T09:48:32;2.35;;;1.10;;
40288;SDS011;28991;52.028;5.526;2023-12-20T09:50:58;2.42;;;1.00;;
40288;SDS011;28991;52.028;5.526;2023-12-20T09:53:24;3.78;;;1.00;;
40288;SDS011;28991;52.028;5.526;2023-12-20T09:55:55;3.25;;;1.10;;
40288;SDS011;28991;52.028;5.526;2023-12-20T09:58:25;2.47;;;1.20;;
40288;SDS011;28991;52.028;5.526;2023-12-20T10:00:50;4.13;;;1.48;;
40288;SDS011;28991;52.028;5.526;2023-12-20T10:03:17;2.95;;;1.20;;
40288;SDS011;28991;52.028;5.526;2023-12-20T10:05:49;6.93;;;0.95;;
40288;SDS011;28991;52.028;5.526;2023-12-20T10:08:21;4.45;;;1.55;;
40288;SDS011;28991;52.028;5.526;2023-12-20T10:10:47;5.88;;;1.45;;
40288;SDS011;28991;52.028;5.526;2023-12-20T10:13:13;7.90;;;1.60;;
40288;SDS011;28991;52.028;5.526;2023-12-20T10:15:40;3.40;;;1.40;;
40288;SDS011;28991;52.028;5.526;2023-12-20T10:18:06;3.78;;;1.70;;
40288;SDS011;28991;52.028;5.526;2023-12-20T10:20:32;4.03;;;1.40;;
40288;SDS011;28991;52.028;5.526;2023-12-20T10:22:58;2.97;;;1.67;;
40288;SDS011;28991;52.028;5.526;2023-12-20T10:25:25;2.78;;;1.35;;
40288;SDS011;28991;52.028;5.526;2023-12-20T10:30:37;2.88;;;1.23;;
40288;SDS011;28991;52.028;5.526;2023-12-20T10:33:05;2.20;;;0.90;;
40288;SDS011;28991;52.028;5.526;2023-12-20T10:35:32;2.15;;;1.08;;
40288;SDS011;28991;52.028;5.526;2023-12-20T10:37:57;3.42;;;1.10;;
40288;SDS011;28991;52.028;5.526;2023-12-20T10:40:27;4.65;;;1.45;;
40288;SDS011;28991;52.028;5.526;2023-12-20T10:42:54;5.95;;;1.50;;
40288;SDS011;28991;52.028;5.526;2023-12-20T10:45:21;2.83;;;0.88;;
40288;SDS011;28991;52.028;5.526;2023-12-20T10:47:48;2.83;;;0.75;;
40288;SDS011;28991;52.028;5.526;2023-12-20T10:50:15;3.03;;;1.08;;
40288;SDS011;28991;52.028;5.526;2023-12-20T10:52:41;1.67;;;0.88;;
40288;SDS011;28991;52.028;5.526;2023-12-20T10:55:07;6.45;;;1.00;;
40288;SDS011;28991;52.028;5.526;2023-12-20T10:57:34;1.83;;;1.00;;
40288;SDS011;28991;52.028;5.526;2023-12-20T11:00:01;3.63;;;1.00;;
40288;SDS011;28991;52.028;5.526;2023-12-20T11:02:29;3.03;;;0.88;;
40288;SDS011;28991;52.028;5.526;2023-12-20T11:05:10;1.63;;;0.82;;
40288;SDS011;28991;52.028;5.526;2023-12-20T11:07:48;3.72;;;1.05;;
40288;SDS011;28991;52.028;5.526;2023-12-20T11:10:25;3.78;;;1.17;;
40288;SDS011;28991;52.028;5.526;2023-12-20T11:13:17;2.45;;;1.02;;
40288;SDS011;28991;52.028;5.526;2023-12-20T11:16:07;1.38;;;0.90;;
40288;SDS011;28991;52.028;5.526;2023-12-20T11:18:33;1.88;;;0.82;;
40288;SDS011;28991;52.028;5.526;2023-12-20T11:21:02;2.03;;;0.90;;
40288;SDS011;28991;52.028;5.526;2023-12-20T11:23:30;3.42;;;1.13;;
40288;SDS011;28991;52.028;5.526;2023-12-20T11:25:59;2.53;;;1.02;;
40288;SDS011;28991;52.028;5.526;2023-12-20T11:28:26;2.53;;;0.90;;
40288;SDS011;28991;52.028;5.526;2023-12-20T11:30:53;1.98;;;1.08;;
40288;SDS011;28991;52.028;5.526;2023-12-20T11:33:23;2.63;;;1.20;;
40288;SDS011;28991;52.028;5.526;2023-12-20T11:35:50;2.30;;;0.65;;
40288;SDS011;28991;52.028;5.526;2023-12-20T11:38:16;2.55;;;0.90;;
40288;SDS011;28991;52.028;5.526;2023-12-20T11:40:42;1.75;;;0.93;;
40288;SDS011;28991;52.028;5.526;2023-12-20T11:43:08;3.17;;;0.65;;
40288;SDS011;28991;52.028;5.526;2023-12-20T11:45:34;1.70;;;0.95;;
40288;SDS011;28991;52.028;5.526;2023-12-20T11:48:00;1.55;;;0.82;;
40288;SDS011;28991;52.028;5.526;2023-12-20T11:50:27;4.13;;;0.77;;
40288;SDS011;28991;52.028;5.526;2023-12-20T11:52:54;2.50;;;1.00;;
40288;SDS011;28991;52.028;5.526;2023-12-20T11:55:23;1.55;;;0.77;;
40288;SDS011;28991;52.028;5.526;2023-12-20T11:57:50;1.27;;;0.85;;
40288;SDS011;28991;52.028;5.526;2023-12-20T12:00:16;1.75;;;0.80;;
40288;SDS011;28991;52.028;5.526;2023-12-20T12:02:42;1.08;;;0.80;;
40288;SDS011;28991;52.028;5.526;2023-12-20T12:05:08;3.13;;;1.10;;
40288;SDS011;28991;52.028;5.526;2023-12-20T12:07:34;3.63;;;0.90;;
40288;SDS011;28991;52.028;5.526;2023-12-20T12:10:00;2.55;;;0.95;;
40288;SDS011;28991;52.028;5.526;2023-12-20T12:12:26;3.13;;;1.10;;
40288;SDS011;28991;52.028;5.526;2023-12-20T12:14:52;3.22;;;0.70;;
40288;SDS011;28991;52.028;5.526;2023-12-20T12:17:19;2.15;;;0.80;;
40288;SDS011;28991;52.028;5.526;2023-12-20T12:19:45;3.40;;;0.90;;
40288;SDS011;28991;52.028;5.526;2023-12-20T12:22:14;2.50;;;0.85;;
40288;SDS011;28991;52.028;5.526;2023-12-20T12:24:43;3.38;;;1.13;;
40288;SDS011;28991;52.028;5.526;2023-12-20T12:27:09;1.83;;;0.82;;
40288;SDS011;28991;52.028;5.526;2023-12-20T12:29:36;2.20;;;0.80;;
40288;SDS011;28991;52.028;5.526;2023-12-20T12:32:09;2.33;;;0.77;;
40288;SDS011;28991;52.028;5.526;2023-12-20T12:34:35;1.88;;;0.85;;
40288;SDS011;28991;52.028;5.526;2023-12-20T12:37:01;2.47;;;0.90;;
40288;SDS011;28991;52.028;5.526;2023-12-20T12:39:28;1.85;;;0.80;;
40288;SDS011;28991;52.028;5.526;2023-12-20T12:41:55;1.27;;;0.80;;
40288;SDS011;28991;52.028;5.526;2023-12-20T12:44:21;2.17;;;0.70;;
40288;SDS011;28991;52.028;5.526;2023-12-20T12:46:48;1.60;;;0.82;;
40288;SDS011;28991;52.028;5.526;2023-12-20T12:49:18;1.35;;;0.68;;
40288;SDS011;28991;52.028;5.526;2023-12-20T12:51:44;1.10;;;0.65;;
40288;SDS011;28991;52.028;5.526;2023-12-20T12:54:10;1.38;;;0.70;;
40288;SDS011;28991;52.028;5.526;2023-12-20T12:56:38;1.85;;;0.57;;
40288;SDS011;28991;52.028;5.526;2023-12-20T12:59:03;1.23;;;0.70;;
40288;SDS011;28991;52.028;5.526;2023-12-20T13:01:30;1.58;;;0.60;;
40288;SDS011;28991;52.028;5.526;2023-12-20T13:03:56;1.65;;;0.57;;
40288;SDS011;28991;52.028;5.526;2023-12-20T13:06:22;2.15;;;0.70;;
40288;SDS011;28991;52.028;5.526;2023-12-20T13:08:47;1.42;;;0.70;;
40288;SDS011;28991;52.028;5.526;2023-12-20T13:11:13;1.00;;;0.60;;
40288;SDS011;28991;52.028;5.526;2023-12-20T13:13:38;1.73;;;0.70;;
40288;SDS011;28991;52.028;5.526;2023-12-20T13:16:04;1.67;;;0.70;;
40288;SDS011;28991;52.028;5.526;2023-12-20T13:18:30;1.42;;;0.60;;
40288;SDS011;28991;52.028;5.526;2023-12-20T13:20:55;0.90;;;0.50;;
40288;SDS011;28991;52.028;5.526;2023-12-20T13:23:21;0.63;;;0.47;;
40288;SDS011;28991;52.028;5.526;2023-12-20T13:25:46;1.73;;;1.35;;
40288;SDS011;28991;52.028;5.526;2023-12-20T13:28:12;1.38;;;0.60;;
40288;SDS011;28991;52.028;5.526;2023-12-20T13:30:38;1.40;;;0.63;;
40288;SDS011;28991;52.028;5.526;2023-12-20T13:33:04;1.33;;;0.50;;
40288;SDS011;28991;52.028;5.526;2023-12-20T13:35:30;0.90;;;0.60;;
40288;SDS011;28991;52.028;5.526;2023-12-20T13:37:57;1.40;;;0.70;;
40288;SDS011;28991;52.028;5.526;2023-12-20T13:40:23;1.40;;;0.70;;
40288;SDS011;28991;52.028;5.526;2023-12-20T13:42:48;1.08;;;0.60;;
40288;SDS011;28991;52.028;5.526;2023-12-20T13:45:14;1.45;;;0.60;;
40288;SDS011;28991;52.028;5.526;2023-12-20T13:47:40;1.50;;;0.85;;
40288;SDS011;28991;52.028;5.526;2023-12-20T13:50:05;1.20;;;0.70;;
40288;SDS011;28991;52.028;5.526;2023-12-20T13:52:31;1.95;;;0.65;;
40288;SDS011;28991;52.028;5.526;2023-12-20T13:54:57;1.83;;;0.88;;
40288;SDS011;28991;52.028;5.526;2023-12-20T13:57:22;1.40;;;0.65;;
40288;SDS011;28991;52.028;5.526;2023-12-20T13:59:48;0.80;;;0.60;;
40288;SDS011;28991;52.028;5.526;2023-12-20T14:02:13;1.58;;;0.73;;
40288;SDS011;28991;52.028;5.526;2023-12-20T14:04:39;1.02;;;0.68;;
40288;SDS011;28991;52.028;5.526;2023-12-20T14:07:05;0.85;;;0.50;;
40288;SDS011;28991;52.028;5.526;2023-12-20T14:09:32;1.85;;;0.60;;
40288;SDS011;28991;52.028;5.526;2023-12-20T14:11:58;0.98;;;0.60;;
40288;SDS011;28991;52.028;5.526;2023-12-20T14:14:23;1.08;;;0.60;;
40288;SDS011;28991;52.028;5.526;2023-12-20T14:16:49;0.80;;;0.50;;
40288;SDS011;28991;52.028;5.526;2023-12-20T14:19:15;1.77;;;0.65;;
40288;SDS011;28991;52.028;5.526;2023-12-20T14:21:40;1.95;;;0.70;;
40288;SDS011;28991;52.028;5.526;2023-12-20T14:24:06;1.50;;;0.80;;
40288;SDS011;28991;52.028;5.526;2023-12-20T14:26:32;2.05;;;0.90;;
40288;SDS011;28991;52.028;5.526;2023-12-20T14:28:57;1.52;;;0.63;;
40288;SDS011;28991;52.028;5.526;2023-12-20T14:31:23;1.08;;;0.65;;
40288;SDS011;28991;52.028;5.526;2023-12-20T14:33:50;1.08;;;0.50;;
40288;SDS011;28991;52.028;5.526;2023-12-20T14:36:16;1.70;;;0.70;;
40288;SDS011;28991;52.028;5.526;2023-12-20T14:38:43;0.70;;;0.60;;
40288;SDS011;28991;52.028;5.526;2023-12-20T14:41:08;1.52;;;0.80;;
40288;SDS011;28991;52.028;5.526;2023-12-20T14:43:34;1.48;;;0.85;;
40288;SDS011;28991;52.028;5.526;2023-12-20T14:46:00;1.13;;;0.95;;